Aeroporto :
LOGIN :

Iscrizione | Disclaimer

   EN    FR    IT 

 










Sommario :    VFR   VFR Marginale   IFR   IFR Intensivo   IFR Molto Intensivo
Visibilità : 
Base nubi : 
>= 8 km
>= 3000ft
5 / 8 km
1000 / 3000 ft
1500m / 5 km
500 / 1000 ft
800 / 1500m
200 / 500 ft
< 800m
< 200 ft
Simboli :   Temporali  Nebbia  Neve Forte  Precipitazioni Forti  Vento > 20 kt
SIGMETs :   Varie  Temporali  Ghiacco  Turbolenza  Onda orograficha  Ceneri Vulcaniche






- Altitudine del aeroporto : 256 ft
- Codice IATA : KUN


EYKA - Kaunas

ULTIMO METAR :
  • 251220Z 14009KT 120V180 4600 -RASN OVC006 02/M00 Q0994 R08/190095

METARs OBSOLETI :
  • 251150Z 15008KT 120V180 9000 -RASN OVC007 02/M00 Q0995 R08/190095
  • 251120Z 14008KT 110V170 5000 -RASN BR OVC007 01/M00 Q0996 R08/190095
  • 251050Z 14009KT 9999 -RASN OVC008 02/M00 Q0996 R08/190095
  • 251020Z 14010KT 9999 -RASN OVC009 02/M01 Q0997 R08/190095
  • 250950Z 13009KT 9000 -RASN OVC009 02/M01 Q0997 R08/190095

TAF TAF EYKA
Valido dal 25 a 12 ore il 26 a 12 ore UTC


251103Z 2512/2612 20010KT 6000 OVC010
TEMPO 2512/2516 14010KT 1500 RASN BR OVC005
TEMPO 2516/2519 3000 BR OVC005
TEMPO 2519/2524 14010KT 1500 SHRASN BKN005 BKN012CB
BECMG 2604/2605 BKN015



MetMap, La meteo Aeronautica in un colpo d'occhio ! - Copyright ORBIFLY Dicembre 2007 - Disclaimer

ORBIFLY MET'MAP TEAM :

Programmazione e sviluppo : Alexandra Zaïnal
Concezione : Baudouin d'Aumeries
Aiuto per la programmazione : Marc-Olivier Méhu
Supporto tecnico e logistico : Manuel Goepfert
Aiuto per la traduzione : Arnaldo La Scala

Contatto : metmap@orbifly.com




FONTI E CREDITI :

   NOAA